Time;durP1;ratioP1;P1;durP2;ratioP2;P2;SDS_P1;SDS_P2;PMS_P1;PMS_P2;Temp;Humidity;BMP_temperature;BMP_pressure;BME280_temperature;BME280_humidity;BME280_pressure;Samples;Min_cycle;Max_cycle;Signal;HPM_P1;HPM_P2
2023/01/20 00:01:08;;;;;;;26.58;19.33;;;-1.30;99.90;-2.10;99610;;;;536911;262;35825;-75
2023/01/20 00:03:33;;;;;;;22.50;16.20;;;-1.40;99.90;-2.20;99621;;;;546110;262;24174;-73
2023/01/20 00:06:02;;;;;;;26.97;17.63;;;-1.40;99.90;-2.30;99622;;;;541689;262;24260;-76
2023/01/20 00:08:30;;;;;;;24.47;17.73;;;-1.50;99.90;-2.30;99620;;;;546499;262;24173;-74
2023/01/20 00:10:58;;;;;;;24.70;18.07;;;-1.50;99.90;-2.40;99626;;;;541678;262;24207;-74
2023/01/20 00:13:26;;;;;;;23.83;17.37;;;-1.50;99.90;-2.40;99621;;;;541856;262;24164;-74
2023/01/20 00:15:54;;;;;;;24.93;16.53;;;-1.60;99.90;-2.50;99636;;;;542836;262;24156;-75
2023/01/20 00:18:22;;;;;;;23.23;16.87;;;-1.60;99.90;-2.50;99634;;;;542609;262;24253;-75
2023/01/20 00:20:50;;;;;;;25.10;17.97;;;-1.70;99.90;-2.60;99640;;;;539394;262;24168;-75
2023/01/20 00:23:18;;;;;;;25.90;16.70;;;-1.70;99.90;-2.60;99642;;;;548449;262;24207;-75
2023/01/20 00:25:46;;;;;;;25.20;17.83;;;-1.80;99.90;-2.70;99650;;;;547973;262;24234;-75
2023/01/20 00:28:14;;;;;;;25.07;17.10;;;-1.90;99.90;-2.70;99655;;;;547757;262;24165;-75
2023/01/20 00:30:41;;;;;;;24.53;16.73;;;-1.90;99.90;-2.80;99660;;;;547805;262;24274;-75
2023/01/20 00:33:09;;;;;;;26.03;17.43;;;-2.00;99.90;-2.90;99660;;;;547674;262;24198;-74
2023/01/20 00:35:37;;;;;;;21.90;16.03;;;-2.10;99.90;-3.00;99667;;;;547563;262;24183;-75
2023/01/20 00:38:05;;;;;;;27.80;17.73;;;-2.10;99.90;-3.00;99678;;;;547580;262;24226;-73
2023/01/20 00:40:33;;;;;;;22.80;16.73;;;-2.20;99.90;-3.10;99678;;;;547653;262;24184;-75
2023/01/20 00:43:01;;;;;;;28.80;17.33;;;-2.20;99.90;-3.10;99685;;;;547619;262;25294;-74
2023/01/20 00:45:29;;;;;;;25.00;18.60;;;-2.30;99.90;-3.20;99685;;;;547756;262;24204;-79
2023/01/20 00:47:57;;;;;;;23.80;18.03;;;-2.30;99.90;-3.20;99685;;;;547649;262;24171;-77
2023/01/20 00:50:25;;;;;;;23.50;18.73;;;-2.40;99.90;-3.30;99689;;;;547534;262;24207;-79
2023/01/20 00:52:53;;;;;;;25.40;19.40;;;-2.40;99.90;-3.30;99689;;;;547275;262;24196;-79
2023/01/20 00:55:21;;;;;;;23.60;18.47;;;-2.40;99.90;-3.40;99683;;;;547294;262;24214;-80
2023/01/20 00:57:49;;;;;;;31.67;21.47;;;-2.50;99.90;-3.40;99683;;;;547306;258;24178;-79
2023/01/20 01:00:17;;;;;;;28.97;21.00;;;-2.50;99.90;-3.40;99693;;;;547325;262;24356;-79
2023/01/20 01:02:45;;;;;;;26.60;20.13;;;-2.60;99.90;-3.40;99687;;;;547248;262;24211;-75
2023/01/20 01:05:13;;;;;;;29.63;20.90;;;-2.60;99.90;-3.40;99693;;;;547312;262;24185;-79
2023/01/20 01:07:42;;;;;;;31.63;21.57;;;-2.60;99.90;-3.50;99687;;;;547298;262;24182;-77
2023/01/20 01:10:10;;;;;;;29.90;21.03;;;-2.60;99.90;-3.50;99695;;;;547189;262;24260;-78
2023/01/20 01:12:38;;;;;;;28.10;22.13;;;-2.70;99.90;-3.60;99694;;;;547274;262;24185;-74
2023/01/20 01:15:09;;;;;;;28.43;20.80;;;-2.70;99.90;-3.60;99696;;;;547313;262;24193;-74
2023/01/20 01:17:35;;;;;;;29.30;21.90;;;-2.70;99.90;-3.60;99695;;;;547152;262;24190;-76
2023/01/20 01:20:06;;;;;;;27.70;21.20;;;-2.80;99.90;-3.70;99695;;;;547267;262;24232;-75
2023/01/20 01:22:30;;;;;;;28.13;20.90;;;-2.80;99.90;-3.70;99696;;;;547155;262;24181;-75
2023/01/20 01:24:59;;;;;;;27.70;20.70;;;-2.80;99.90;-3.70;99707;;;;547644;262;24215;-75
2023/01/20 01:27:30;;;;;;;26.30;20.30;;;-2.80;99.90;-3.70;99697;;;;548409;260;24203;-75
2023/01/20 01:29:58;;;;;;;28.97;20.97;;;-2.80;99.90;-3.60;99698;;;;547952;262;24215;-75
2023/01/20 01:32:23;;;;;;;29.60;22.20;;;-2.70;99.90;-3.60;99700;;;;547644;262;24234;-74
2023/01/20 01:34:51;;;;;;;28.27;20.17;;;-2.70;99.90;-3.60;99701;;;;547959;262;24215;-74
2023/01/20 01:37:19;;;;;;;31.13;21.73;;;-2.70;99.90;-3.60;99699;;;;547822;262;24188;-77
2023/01/20 01:39:48;;;;;;;29.73;22.27;;;-2.70;99.90;-3.60;99702;;;;547739;262;24207;-75
2023/01/20 01:42:16;;;;;;;30.00;22.77;;;-2.70;99.90;-3.50;99699;;;;547767;262;25226;-78
2023/01/20 01:45:11;;;;;;;32.30;22.73;;;-2.60;99.90;-3.50;99702;;;;547598;262;28451;-77
2023/01/20 01:47:48;;;;;;;31.57;21.83;;;-2.60;99.90;-3.50;99705;;;;547708;262;24237;-78
2023/01/20 01:50:33;;;;;;;31.50;21.67;;;-2.60;99.90;-3.50;99697;;;;547344;262;24246;-76
2023/01/20 01:53:01;;;;;;;30.30;21.53;;;-2.60;99.90;-3.50;99715;;;;547503;262;24194;-77
2023/01/20 01:55:29;;;;;;;29.60;21.50;;;-2.60;99.90;-3.50;99711;;;;547523;262;24189;-78
2023/01/20 01:57:57;;;;;;;32.57;23.20;;;-2.60;99.90;-3.50;99699;;;;547392;258;24212;-78
2023/01/20 02:00:25;;;;;;;32.47;22.43;;;-2.60;99.90;-3.40;99699;;;;547444;262;24191;-75
2023/01/20 02:02:53;;;;;;;30.30;22.97;;;-2.60;99.90;-3.40;99710;;;;547416;262;24170;-77
2023/01/20 02:05:21;;;;;;;32.27;23.43;;;-2.60;99.90;-3.50;99713;;;;547161;262;24185;-78
2023/01/20 02:07:49;;;;;;;32.53;23.77;;;-2.60;99.90;-3.50;99721;;;;547279;262;24174;-75
2023/01/20 02:10:18;;;;;;;32.97;23.23;;;-2.60;99.90;-3.50;99727;;;;547296;262;24193;-74
2023/01/20 02:12:48;;;;;;;32.47;24.13;;;-2.60;99.90;-3.60;99715;;;;547327;262;24186;-77
2023/01/20 02:15:14;;;;;;;30.17;21.47;;;-2.70;99.90;-3.60;99718;;;;547166;262;24224;-78
2023/01/20 02:18:03;;;;;;;35.97;24.00;;;-2.70;99.90;-3.70;99723;;;;547340;262;24193;-79
2023/01/20 02:20:49;;;;;;;33.17;23.83;;;-2.80;99.90;-3.70;99726;;;;546903;262;24193;-74
2023/01/20 02:23:29;;;;;;;31.80;23.17;;;-2.80;99.90;-3.70;99725;;;;545240;262;24185;-75
2023/01/20 02:26:02;;;;;;;31.37;22.63;;;-2.80;99.90;-3.80;99716;;;;546700;262;24189;-78
2023/01/20 02:28:54;;;;;;;37.53;24.43;;;-2.90;99.90;-3.70;99726;;;;547795;262;24165;-76
2023/01/20 02:31:49;;;;;;;34.10;24.50;;;-2.90;99.90;-3.70;99714;;;;547352;262;24208;-79
2023/01/20 02:34:31;;;;;;;32.67;23.37;;;-2.90;99.90;-3.70;99719;;;;547430;261;24203;-79
2023/01/20 02:37:11;;;;;;;34.03;24.43;;;-2.90;99.90;-3.70;99732;;;;547168;262;24193;-77
2023/01/20 02:39:45;;;;;;;33.53;24.00;;;-2.90;99.90;-3.70;99738;;;;548741;260;24199;-78
2023/01/20 02:42:19;;;;;;;36.17;24.33;;;-2.90;99.90;-3.80;99734;;;;547177;262;24207;-77
2023/01/20 02:44:54;;;;;;;32.03;24.23;;;-2.90;99.90;-3.80;99743;;;;545068;262;25250;-78
2023/01/20 02:47:33;;;;;;;36.97;25.37;;;-3.00;99.90;-3.80;99739;;;;547235;262;24207;-78
2023/01/20 02:50:12;;;;;;;34.40;24.97;;;-3.00;99.90;-3.80;99743;;;;547467;262;24195;-77
2023/01/20 02:52:44;;;;;;;37.10;25.13;;;-2.90;99.90;-3.70;99747;;;;547988;262;24188;-79
2023/01/20 02:55:12;;;;;;;37.97;24.73;;;-2.90;99.90;-3.70;99747;;;;547726;262;24168;-78
2023/01/20 02:57:48;;;;;;;39.87;25.00;;;-2.90;99.90;-3.70;99759;;;;547369;258;24219;-77
2023/01/20 03:00:25;;;;;;;38.53;25.63;;;-2.80;99.90;-3.60;99762;;;;547518;262;24257;-76
2023/01/20 03:02:56;;;;;;;40.77;26.47;;;-2.70;99.90;-3.50;99765;;;;547617;262;24173;-76
2023/01/20 03:05:21;;;;;;;35.20;24.63;;;-2.70;99.90;-3.40;99760;;;;547380;262;24254;-75
2023/01/20 03:07:49;;;;;;;36.20;24.80;;;-2.60;99.90;-3.40;99755;;;;547463;262;24199;-75
2023/01/20 03:10:17;;;;;;;39.57;23.70;;;-2.50;99.90;-3.40;99762;;;;547526;262;24228;-75
2023/01/20 03:12:54;;;;;;;33.93;23.67;;;-2.50;99.90;-3.40;99763;;;;547694;262;24216;-75
2023/01/20 03:15:22;;;;;;;35.50;23.30;;;-2.50;99.90;-3.40;99765;;;;547632;262;24178;-74
2023/01/20 03:17:50;;;;;;;37.77;22.50;;;-2.50;99.90;-3.40;99773;;;;547478;262;24155;-74
2023/01/20 03:20:19;;;;;;;30.83;21.40;;;-2.50;99.90;-3.40;99768;;;;547398;262;24212;-75
2023/01/20 03:22:47;;;;;;;37.50;23.00;;;-2.50;99.90;-3.30;99769;;;;547432;262;24189;-76
2023/01/20 03:25:15;;;;;;;31.73;20.03;;;-2.50;99.90;-3.30;99766;;;;547465;262;24211;-77
2023/01/20 03:27:42;;;;;;;31.53;20.17;;;-2.50;99.90;-3.40;99770;;;;547729;262;24178;-74
2023/01/20 03:30:13;;;;;;;33.63;21.77;;;-2.50;99.90;-3.40;99774;;;;547394;262;24178;-74
2023/01/20 03:32:41;;;;;;;33.33;22.20;;;-2.60;99.90;-3.50;99780;;;;547301;262;24192;-75
2023/01/20 03:35:09;;;;;;;36.03;21.73;;;-2.60;99.90;-3.60;99767;;;;547195;262;24205;-77
2023/01/20 03:37:40;;;;;;;33.40;23.20;;;-2.70;99.90;-3.60;99778;;;;547216;262;24200;-74
2023/01/20 03:40:05;;;;;;;38.73;24.70;;;-2.70;99.90;-3.70;99782;;;;546967;262;24177;-75
2023/01/20 03:42:59;;;;;;;35.10;24.40;;;-2.80;99.90;-3.70;99791;;;;547174;262;24218;-75
2023/01/20 03:45:48;;;;;;;31.83;22.70;;;-2.80;99.90;-3.70;99793;;;;544945;262;24178;-77
2023/01/20 03:48:31;;;;;;;34.00;24.90;;;-2.80;99.90;-3.70;99809;;;;543987;263;24236;-74
2023/01/20 03:50:59;;;;;;;35.10;25.33;;;-2.80;99.90;-3.60;99802;;;;542754;262;24212;-75
2023/01/20 03:53:44;;;;;;;34.60;22.90;;;-2.80;99.90;-3.50;99819;;;;547915;261;24184;-78
2023/01/20 03:56:25;;;;;;;34.93;23.50;;;-2.70;99.90;-3.40;99806;;;;546021;259;24184;-75
2023/01/20 03:58:53;;;;;;;37.60;24.57;;;-2.50;99.90;-3.40;99813;;;;547708;258;24170;-75
2023/01/20 04:01:21;;;;;;;33.13;21.47;;;-2.50;99.90;-3.30;99822;;;;547853;262;24189;-77
2023/01/20 04:03:49;;;;;;;32.03;22.57;;;-2.40;99.90;-3.20;99821;;;;547624;262;25250;-76
2023/01/20 04:06:18;;;;;;;30.93;22.67;;;-2.30;99.90;-3.20;99823;;;;547694;262;24253;-75
2023/01/20 04:08:55;;;;;;;37.30;23.53;;;-2.30;99.90;-3.20;99819;;;;547554;262;24201;-76
2023/01/20 04:11:24;;;;;;;34.53;23.87;;;-2.20;99.90;-3.10;99824;;;;547563;262;24176;-80
2023/01/20 04:13:54;;;;;;;32.90;21.77;;;-2.30;99.90;-3.10;99829;;;;547507;262;25228;-78
2023/01/20 04:16:19;;;;;;;33.20;21.83;;;-2.30;99.90;-3.10;99831;;;;547507;262;24193;-79
2023/01/20 04:18:48;;;;;;;36.40;21.03;;;-2.30;99.90;-3.10;99840;;;;547549;262;24231;-79
2023/01/20 04:21:34;;;;;;;38.43;26.20;;;-2.20;99.90;-3.10;99843;;;;542805;262;35874;-79
2023/01/20 04:24:16;;;;;;;29.67;20.10;;;-2.20;99.90;-3.00;99851;;;;546460;262;24174;-78
2023/01/20 04:26:44;;;;;;;33.97;22.40;;;-2.20;99.90;-3.00;99855;;;;546605;262;24180;-79
2023/01/20 04:29:13;;;;;;;30.87;22.10;;;-2.10;99.90;-3.00;99866;;;;547779;259;24208;-78
2023/01/20 04:31:41;;;;;;;33.63;22.53;;;-2.10;99.90;-3.00;99855;;;;547511;262;24193;-77
2023/01/20 04:34:11;;;;;;;33.60;22.00;;;-2.10;99.90;-2.90;99865;;;;547308;262;24334;-77
2023/01/20 04:36:37;;;;;;;32.67;23.03;;;-2.10;99.90;-2.90;99865;;;;547000;262;24188;-78
2023/01/20 04:39:05;;;;;;;32.23;22.60;;;-2.10;99.90;-2.90;99871;;;;547327;262;24178;-79
2023/01/20 04:41:33;;;;;;;31.83;21.53;;;-2.10;99.90;-2.90;99875;;;;547341;262;24188;-77
2023/01/20 04:44:02;;;;;;;33.57;22.43;;;-2.00;99.90;-2.90;99868;;;;547340;262;24261;-78
2023/01/20 04:46:29;;;;;;;30.23;21.80;;;-2.10;99.90;-2.90;99873;;;;547332;262;24193;-76
2023/01/20 04:48:57;;;;;;;28.40;20.33;;;-2.00;99.90;-2.90;99861;;;;547305;262;24197;-76
2023/01/20 04:51:25;;;;;;;30.33;21.83;;;-2.00;99.90;-2.90;99862;;;;547322;262;24201;-77
2023/01/20 04:53:56;;;;;;;29.13;21.73;;;-2.10;99.90;-2.90;99873;;;;547319;262;24208;-76
2023/01/20 04:56:26;;;;;;;31.77;21.73;;;-2.10;99.90;-2.90;99870;;;;547305;262;24181;-81
2023/01/20 04:58:51;;;;;;;33.10;21.70;;;-2.10;99.90;-2.90;99880;;;;546872;258;24188;-76
2023/01/20 05:01:19;;;;;;;31.53;22.10;;;-2.10;99.90;-2.90;99883;;;;547877;260;24193;-77
2023/01/20 05:03:48;;;;;;;36.70;21.23;;;-2.00;99.90;-2.80;99879;;;;548439;262;24180;-74
2023/01/20 05:06:17;;;;;;;35.63;26.20;;;-2.00;99.90;-2.80;99875;;;;543364;262;35801;-77
2023/01/20 05:08:47;;;;;;;30.33;21.13;;;-2.00;99.90;-2.80;99883;;;;547982;262;24205;-75
2023/01/20 05:11:12;;;;;;;34.13;22.00;;;-2.00;99.90;-2.80;99884;;;;547588;262;24166;-75
2023/01/20 05:13:39;;;;;;;30.17;22.00;;;-1.90;99.90;-2.80;99901;;;;547794;262;24186;-75
2023/01/20 05:16:07;;;;;;;29.17;20.87;;;-1.90;99.90;-2.80;99897;;;;547779;262;24241;-76
2023/01/20 05:18:35;;;;;;;28.47;20.23;;;-1.90;99.90;-2.80;99900;;;;547938;262;24185;-78
2023/01/20 05:21:06;;;;;;;31.17;21.67;;;-2.00;99.90;-2.80;99905;;;;547554;262;24180;-77
2023/01/20 05:23:31;;;;;;;33.37;20.43;;;-1.90;99.90;-2.80;99915;;;;547372;262;24199;-79
2023/01/20 05:25:59;;;;;;;30.03;21.20;;;-1.90;99.90;-2.70;99923;;;;547572;262;24271;-79
2023/01/20 05:28:27;;;;;;;33.43;21.90;;;-1.90;99.90;-2.70;99917;;;;547539;262;24192;-75
2023/01/20 05:30:55;;;;;;;31.37;21.83;;;-1.90;99.90;-2.70;99920;;;;547972;262;24192;-75
2023/01/20 05:33:23;;;;;;;33.87;21.13;;;-1.80;99.90;-2.70;99924;;;;547662;262;24184;-76
2023/01/20 05:35:50;;;;;;;33.17;21.03;;;-1.80;99.90;-2.70;99925;;;;547641;262;24231;-75
2023/01/20 05:38:19;;;;;;;28.17;18.93;;;-1.80;99.90;-2.70;99924;;;;547479;262;24220;-77
2023/01/20 05:40:47;;;;;;;28.73;19.53;;;-1.90;99.90;-2.60;99934;;;;547453;262;24193;-74
2023/01/20 05:43:15;;;;;;;31.55;22.02;;;-1.80;99.90;-2.60;99931;;;;542568;262;35707;-75
2023/01/20 05:45:45;;;;;;;32.57;20.10;;;-1.70;99.90;-2.60;99944;;;;547311;262;24181;-74
2023/01/20 05:48:11;;;;;;;28.10;18.97;;;-1.80;99.90;-2.60;99951;;;;547442;262;24165;-75
2023/01/20 05:50:39;;;;;;;28.90;20.03;;;-1.70;99.90;-2.60;99951;;;;547410;262;24243;-76
2023/01/20 05:53:08;;;;;;;26.30;17.83;;;-1.70;99.90;-2.50;99963;;;;547385;262;24193;-75
2023/01/20 05:55:36;;;;;;;25.47;18.57;;;-1.70;99.90;-2.50;99954;;;;547398;262;24190;-75
2023/01/20 05:58:07;;;;;;;27.57;18.80;;;-1.70;99.90;-2.50;99946;;;;547378;258;24174;-75
2023/01/20 06:00:32;;;;;;;28.63;19.83;;;-1.60;99.90;-2.50;99955;;;;546992;262;24179;-74
2023/01/20 06:03:00;;;;;;;28.93;19.10;;;-1.70;99.90;-2.50;99958;;;;547315;262;24200;-74
2023/01/20 06:05:28;;;;;;;27.03;17.60;;;-1.70;99.90;-2.50;99962;;;;547374;262;24197;-76
2023/01/20 06:08:00;;;;;;;29.87;19.80;;;-1.60;99.90;-2.40;99962;;;;547404;262;24211;-76
2023/01/20 06:10:27;;;;;;;23.83;17.33;;;-1.60;99.90;-2.40;99962;;;;547007;262;24181;-75
2023/01/20 06:12:52;;;;;;;28.37;18.90;;;-1.50;99.90;-2.40;99976;;;;547624;260;24172;-77
2023/01/20 06:15:20;;;;;;;28.63;18.43;;;-1.50;99.90;-2.30;99980;;;;548476;262;25270;-74
2023/01/20 06:17:47;;;;;;;24.70;17.57;;;-1.50;99.90;-2.30;99987;;;;548330;262;24227;-74
2023/01/20 06:20:15;;;;;;;30.67;21.65;;;-1.50;99.90;-2.30;99987;;;;543308;262;35775;-75
2023/01/20 06:22:43;;;;;;;30.33;18.23;;;-1.50;99.90;-2.30;99993;;;;547875;257;24188;-75
2023/01/20 06:25:11;;;;;;;26.73;18.43;;;-1.50;99.90;-2.30;100003;;;;547770;262;24236;-75
2023/01/20 06:27:39;;;;;;;28.10;18.97;;;-1.50;99.90;-2.30;100003;;;;548168;262;24207;-75
2023/01/20 06:30:07;;;;;;;31.47;19.00;;;-1.40;99.90;-2.30;100009;;;;547972;262;24210;-75
2023/01/20 06:32:35;;;;;;;25.13;18.57;;;-1.40;99.90;-2.30;100015;;;;547986;262;24184;-75
2023/01/20 06:35:07;;;;;;;29.70;18.17;;;-1.40;99.90;-2.20;100018;;;;547572;262;24226;-75
2023/01/20 06:37:32;;;;;;;27.30;19.17;;;-1.40;99.90;-2.20;100030;;;;547831;262;24225;-74
2023/01/20 06:40:00;;;;;;;29.97;21.57;;;-1.40;99.90;-2.20;100026;;;;547598;262;24238;-73
2023/01/20 06:42:28;;;;;;;29.13;20.90;;;-1.40;99.90;-2.20;100029;;;;547976;262;24188;-74
2023/01/20 06:44:57;;;;;;;32.00;19.17;;;-1.40;99.90;-2.20;100043;;;;547628;262;24182;-75
2023/01/20 06:47:25;;;;;;;32.20;20.27;;;-1.40;99.90;-2.20;100047;;;;547763;262;24217;-74
2023/01/20 06:49:53;;;;;;;29.47;20.17;;;-1.40;99.90;-2.20;100048;;;;547813;262;24197;-75
2023/01/20 06:52:21;;;;;;;30.30;19.57;;;-1.30;99.90;-2.10;100058;;;;547314;259;24264;-74
2023/01/20 06:54:49;;;;;;;33.03;19.97;;;-1.30;99.90;-2.10;100066;;;;547735;262;24185;-75
2023/01/20 06:57:18;;;;;;;33.17;20.47;;;-1.30;99.90;-2.10;100083;;;;547359;258;24184;-75
2023/01/20 06:59:46;;;;;;;30.83;19.33;;;-1.30;99.90;-2.10;100087;;;;547756;262;25204;-76
2023/01/20 07:02:14;;;;;;;27.80;18.43;;;-1.20;99.90;-2.10;100091;;;;547394;262;24186;-74
2023/01/20 07:04:42;;;;;;;30.13;20.37;;;-1.20;99.90;-2.00;100101;;;;547693;262;24216;-75
2023/01/20 07:07:10;;;;;;;32.60;20.07;;;-1.20;99.90;-2.00;100113;;;;547413;262;24293;-75
2023/01/20 07:09:38;;;;;;;29.53;19.70;;;-1.10;99.90;-2.00;100112;;;;547673;262;24196;-75
2023/01/20 07:12:06;;;;;;;31.50;20.93;;;-1.20;99.90;-2.10;100126;;;;547482;262;24189;-78
2023/01/20 07:14:34;;;;;;;28.73;19.30;;;-1.20;99.90;-2.20;100121;;;;547718;262;24184;-76
2023/01/20 07:17:02;;;;;;;30.90;19.63;;;-1.30;99.90;-2.20;100136;;;;547529;262;24187;-79
2023/01/20 07:19:30;;;;;;;32.73;20.53;;;-1.40;99.90;-2.20;100139;;;;547764;262;24185;-75
2023/01/20 07:21:58;;;;;;;26.97;19.60;;;-1.40;99.90;-2.20;100141;;;;547318;262;24197;-80
2023/01/20 07:24:26;;;;;;;33.13;22.00;;;-1.30;99.90;-2.20;100144;;;;548289;260;24188;-79
2023/01/20 07:26:54;;;;;;;34.53;20.47;;;-1.30;99.90;-2.20;100155;;;;548507;262;24206;-79
2023/01/20 07:29:22;;;;;;;30.10;20.63;;;-1.40;99.90;-2.20;100164;;;;548527;262;24191;-79
2023/01/20 07:31:50;;;;;;;31.17;21.50;;;-1.40;99.90;-2.20;100164;;;;548118;262;24196;-78
2023/01/20 07:34:18;;;;;;;34.97;22.57;;;-1.40;99.90;-2.10;100174;;;;548304;262;24220;-77
2023/01/20 07:36:46;;;;;;;34.20;22.10;;;-1.20;99.90;-2.10;100178;;;;547974;262;24192;-75
2023/01/20 07:39:18;;;;;;;29.50;21.10;;;-1.30;99.90;-2.00;100176;;;;548215;262;24222;-77
2023/01/20 07:41:47;;;;;;;29.40;20.50;;;-1.20;99.90;-2.00;100182;;;;547757;262;24205;-76
2023/01/20 07:44:10;;;;;;;28.83;19.20;;;-1.20;99.90;-2.00;100189;;;;547635;262;24259;-74
2023/01/20 07:46:38;;;;;;;31.67;19.63;;;-1.20;99.90;-1.90;100202;;;;547760;262;24181;-77
2023/01/20 07:49:06;;;;;;;28.10;18.67;;;-1.10;99.90;-1.90;100210;;;;547951;262;24173;-76
2023/01/20 07:51:34;;;;;;;28.67;18.03;;;-1.10;99.90;-1.90;100213;;;;547548;262;24210;-79
2023/01/20 07:54:03;;;;;;;28.87;18.73;;;-1.10;99.90;-1.90;100218;;;;547971;262;24178;-78
2023/01/20 07:56:30;;;;;;;28.07;18.10;;;-1.10;99.90;-1.90;100218;;;;547556;262;24184;-77
2023/01/20 07:58:57;;;;;;;25.57;17.63;;;-1.10;99.90;-1.90;100222;;;;547704;258;24228;-77
2023/01/20 08:01:28;;;;;;;26.00;17.83;;;-1.10;99.90;-1.90;100229;;;;547820;262;24203;-75
2023/01/20 08:03:59;;;;;;;26.47;17.83;;;-1.10;99.90;-1.90;100232;;;;547497;262;24175;-77
2023/01/20 08:06:27;;;;;;;27.43;18.47;;;-1.00;99.90;-1.90;100231;;;;547559;262;24200;-77
2023/01/20 08:08:52;;;;;;;30.73;18.37;;;-1.00;99.90;-1.80;100238;;;;547020;262;24194;-75
2023/01/20 08:11:20;;;;;;;28.37;18.87;;;-1.00;99.90;-1.80;100237;;;;547764;262;25231;-77
2023/01/20 08:13:48;;;;;;;29.23;17.80;;;-0.90;99.90;-1.70;100241;;;;547462;262;24173;-77
2023/01/20 08:16:15;;;;;;;27.00;18.47;;;-0.90;99.90;-1.70;100239;;;;547903;262;24212;-77
2023/01/20 08:18:47;;;;;;;26.57;18.50;;;-0.80;99.90;-1.60;100247;;;;547833;262;24186;-75
2023/01/20 08:21:17;;;;;;;27.13;18.97;;;-0.80;99.90;-1.50;100248;;;;547829;262;24228;-76
2023/01/20 08:23:45;;;;;;;25.30;17.93;;;-0.70;99.90;-1.50;100244;;;;547552;262;24215;-75
2023/01/20 08:26:13;;;;;;;27.87;19.03;;;-0.70;99.90;-1.50;100250;;;;547897;262;24223;-77
2023/01/20 08:28:41;;;;;;;29.03;20.03;;;-0.60;99.90;-1.40;100255;;;;547942;262;24178;-75
2023/01/20 08:31:11;;;;;;;27.73;19.70;;;-0.60;99.90;-1.40;100255;;;;548431;262;24296;-76
2023/01/20 08:33:41;;;;;;;25.13;18.90;;;-0.50;99.90;-1.30;100259;;;;548253;262;24181;-76
2023/01/20 08:36:07;;;;;;;27.33;18.27;;;-0.50;99.90;-1.30;100268;;;;549171;260;24181;-78
2023/01/20 08:38:35;;;;;;;26.03;17.77;;;-0.40;99.90;-1.20;100261;;;;549006;262;24199;-76
2023/01/20 08:41:15;;;;;;;26.67;18.23;;;-0.40;99.90;-1.20;100269;;;;548868;262;24192;-77
2023/01/20 08:43:43;;;;;;;23.43;17.53;;;-0.30;99.90;-1.10;100266;;;;547928;262;24185;-75
2023/01/20 08:46:11;;;;;;;26.27;18.57;;;-0.30;99.90;-1.00;100269;;;;548314;262;24198;-75
2023/01/20 08:48:39;;;;;;;23.03;16.90;;;-0.30;99.90;-1.00;100274;;;;547828;262;24187;-75
2023/01/20 08:51:10;;;;;;;29.43;19.27;;;-0.20;99.90;-1.00;100271;;;;548185;262;24184;-76
2023/01/20 08:53:38;;;;;;;25.83;16.90;;;-0.20;99.90;-0.90;100282;;;;547866;262;24203;-75
2023/01/20 08:56:09;;;;;;;26.57;17.43;;;-0.10;99.90;-0.90;100269;;;;548007;262;24177;-79
2023/01/20 08:58:33;;;;;;;26.80;17.30;;;0.00;99.90;-0.80;100280;;;;547479;258;24202;-76
2023/01/20 09:01:01;;;;;;;23.63;17.17;;;0.00;99.90;-0.80;100284;;;;547583;262;24233;-77
2023/01/20 09:03:29;;;;;;;26.20;16.47;;;0.00;99.90;-0.70;100288;;;;547588;262;24216;-76
2023/01/20 09:05:58;;;;;;;25.40;16.87;;;0.20;99.90;-0.60;100277;;;;547593;262;24182;-75
2023/01/20 09:08:26;;;;;;;29.20;17.43;;;0.10;99.90;-0.60;100295;;;;547539;262;24185;-80
2023/01/20 09:10:57;;;;;;;26.47;19.20;;;0.20;99.90;-0.60;100294;;;;547572;262;24209;-76
2023/01/20 09:13:22;;;;;;;26.67;17.70;;;0.20;99.90;-0.60;100294;;;;546760;262;24174;-76
2023/01/20 09:15:53;;;;;;;25.00;17.10;;;0.20;99.90;-0.60;100301;;;;547360;262;24185;-76
2023/01/20 09:18:21;;;;;;;26.13;17.40;;;0.20;99.90;-0.60;100303;;;;547364;262;24182;-77
2023/01/20 09:20:49;;;;;;;25.70;18.07;;;0.20;99.90;-0.60;100301;;;;547350;262;24240;-75
2023/01/20 09:23:17;;;;;;;26.13;16.83;;;0.20;99.90;-0.60;100302;;;;547313;262;24182;-77
2023/01/20 09:25:44;;;;;;;26.83;15.87;;;0.20;99.90;-0.60;100304;;;;547485;262;24162;-77
2023/01/20 09:28:13;;;;;;;27.33;17.20;;;0.20;99.90;-0.60;100308;;;;547358;262;24209;-75
2023/01/20 09:30:42;;;;;;;24.00;16.33;;;0.20;99.90;-0.60;100307;;;;547292;262;24191;-77
2023/01/20 09:33:12;;;;;;;22.47;16.60;;;0.20;99.90;-0.50;100307;;;;547632;262;24204;-79
2023/01/20 09:35:39;;;;;;;26.33;16.83;;;0.30;99.90;-0.50;100308;;;;547369;262;24189;-77
2023/01/20 09:44:23;;;;;;;23.97;17.03;;;0.40;99.90;-0.30;100314;;;;547303;262;24235;-78
2023/01/20 09:47:18;;;;;;;21.00;16.00;;;0.50;99.90;-0.30;100313;;;;547287;262;24197;-77
2023/01/20 09:53:04;;;;;;;24.60;17.23;;;0.60;99.90;-0.10;100312;;;;548117;262;24205;-76
2023/01/20 09:55:54;;;;;;;21.93;15.03;;;0.80;99.90;0.00;100309;;;;547966;262;24193;-74
2023/01/20 09:58:36;;;;;;;22.50;14.53;;;0.80;99.90;0.10;100314;;;;547916;258;24204;-75
2023/01/20 10:01:08;;;;;;;20.10;13.57;;;0.80;99.90;0.20;100302;;;;547550;262;24223;-74
2023/01/20 10:03:41;;;;;;;19.40;10.93;;;0.90;99.90;0.20;100309;;;;547700;262;24229;-79
2023/01/20 10:06:27;;;;;;;17.70;9.30;;;1.00;99.90;0.30;100309;;;;547370;262;24209;-76
2023/01/20 10:09:25;;;;;;;20.43;9.77;;;1.10;99.90;0.30;100309;;;;547784;262;24183;-75
2023/01/20 10:11:53;;;;;;;19.97;9.90;;;1.10;99.90;0.40;100303;;;;547834;262;24189;-75
2023/01/20 10:14:21;;;;;;;18.27;10.17;;;1.20;99.90;0.50;100301;;;;547092;262;24204;-75
2023/01/20 10:17:01;;;;;;;17.07;9.10;;;1.20;99.90;0.50;100309;;;;547073;262;24194;-75
2023/01/20 10:19:35;;;;;;;17.70;8.77;;;1.30;99.90;0.60;100304;;;;546288;262;24193;-74
2023/01/20 10:22:21;;;;;;;13.50;8.60;;;1.40;99.90;0.60;100306;;;;547502;262;24170;-74
2023/01/20 10:25:12;;;;;;;24.73;11.03;;;1.40;99.90;0.60;100308;;;;547657;262;24228;-75
2023/01/20 10:27:40;;;;;;;29.43;12.73;;;1.40;99.90;0.60;100308;;;;539317;262;24206;-74
2023/01/20 10:30:11;;;;;;;28.80;12.83;;;1.40;99.90;0.60;100308;;;;547138;262;24216;-74
2023/01/20 10:32:45;;;;;;;30.80;14.00;;;1.40;99.90;0.70;100314;;;;547213;262;24196;-75
2023/01/20 10:35:18;;;;;;;18.17;10.43;;;1.50;99.90;0.80;100312;;;;547448;262;24197;-73
2023/01/20 10:37:50;;;;;;;14.53;8.33;;;1.60;99.90;0.90;100310;;;;547375;262;24199;-74
2023/01/20 10:40:38;;;;;;;16.20;7.90;;;1.60;99.90;0.90;100304;;;;547421;262;24217;-75
2023/01/20 10:43:15;;;;;;;16.40;9.10;;;1.70;99.90;1.00;100312;;;;547133;262;24174;-76
2023/01/20 10:46:21;;;;;;;14.03;8.47;;;1.90;99.90;1.10;100310;;;;547711;262;24189;-74
2023/01/20 10:49:25;;;;;;;17.57;9.00;;;1.80;99.90;1.30;100322;;;;549111;261;24196;-75
2023/01/20 10:52:01;;;;;;;20.67;10.03;;;2.00;99.90;1.30;100340;;;;547630;262;24193;-74
2023/01/20 10:54:46;;;;;;;23.50;9.83;;;2.00;99.90;1.30;100338;;;;546654;262;24197;-79
2023/01/20 10:57:19;;;;;;;20.20;10.23;;;2.10;99.90;1.40;100338;;;;547480;258;24193;-75
2023/01/20 10:59:49;;;;;;;20.27;9.57;;;2.10;99.90;1.40;100333;;;;547942;260;24196;-77
2023/01/20 11:02:17;;;;;;;17.93;10.33;;;2.20;99.90;1.50;100334;;;;548731;262;24199;-76
2023/01/20 11:04:45;;;;;;;26.63;11.70;;;2.20;99.90;1.50;100334;;;;548599;262;24206;-73
2023/01/20 11:07:13;;;;;;;18.30;10.20;;;2.20;99.90;1.50;100340;;;;548151;262;24197;-75
2023/01/20 11:09:41;;;;;;;32.50;17.10;;;2.30;99.90;1.60;100339;;;;547769;262;24210;-76
2023/01/20 11:12:18;;;;;;;26.17;12.83;;;2.30;99.90;1.60;100347;;;;547837;262;24202;-77
2023/01/20 11:14:46;;;;;;;31.00;12.83;;;2.30;99.90;1.70;100360;;;;547622;262;24239;-77
2023/01/20 11:17:16;;;;;;;21.00;10.40;;;2.40;99.90;1.80;100362;;;;548100;262;24228;-75
2023/01/20 11:19:50;;;;;;;22.60;11.23;;;2.50;99.90;1.80;100360;;;;548075;262;24204;-75
2023/01/20 11:22:30;;;;;;;24.20;11.70;;;2.60;99.90;1.90;100363;;;;547756;262;24181;-76
2023/01/20 11:25:00;;;;;;;24.80;12.17;;;2.60;99.90;1.90;100368;;;;548378;262;24243;-75
2023/01/20 11:27:28;;;;;;;26.37;12.43;;;2.60;99.90;1.90;100362;;;;548586;262;24228;-75